Teixeira de Freitas, Brazil
Current Conditions -  °F | °C
As of 3:00 AM on Wednesday 26 Nov 2014 (Local Time) from SBPS Reporting Station
Few Clouds Few Clouds  
Wind Chill: 73°   Ceiling: Unl
Heat Index: 73°   Visibility: 6mi
Dew Point: 70°   Wind: 3mph
Humidity: 88%   Direction: 350°N
Pressure: 29.91"   Gusts: NA
Location:  17.54°S, 39.74°W
Report Text: SBPS 260600Z 35003KT 320V030 9999 FEW020 23/21 Q1013
Loading
Personal Weather Stations






























Interactive Weather Map New forecast layout! Learn more

10-Day Weather Forecast

Advertisements
Track Severe Weather on mobile